Time;durP1;ratioP1;P1;durP2;ratioP2;P2;SDS_P1;SDS_P2;PMS_P1;PMS_P2;Temp;Humidity;BMP_temperature;BMP_pressure;BME280_temperature;BME280_humidity;BME280_pressure;Samples;Min_cycle;Max_cycle;Signal;HPM_P1;HPM_P2
2023/07/23 00:02:01;;;;;;;9.50;9.30;;;18.50;99.90;;;;;;5019001;28;20519;-65
2023/07/23 00:04:31;;;;;;;9.27;9.07;;;18.50;99.90;;;;;;5028237;28;20456;-66
2023/07/23 00:06:58;;;;;;;9.60;9.40;;;18.60;99.90;;;;;;5023337;28;20902;-66
2023/07/23 00:09:25;;;;;;;9.83;9.63;;;18.60;99.90;;;;;;5016492;28;21026;-65
2023/07/23 00:11:56;;;;;;;9.83;9.63;;;18.60;99.90;;;;;;5022714;28;20560;-65
2023/07/23 00:14:23;;;;;;;9.70;9.50;;;18.60;99.90;;;;;;5025274;28;20460;-65
2023/07/23 00:16:50;;;;;;;9.50;9.30;;;18.70;99.90;;;;;;5031162;28;20484;-65
2023/07/23 00:19:19;;;;;;;9.73;9.53;;;18.70;99.90;;;;;;5025524;28;20468;-65
2023/07/23 00:21:47;;;;;;;10.00;9.80;;;18.70;99.90;;;;;;5023485;28;20473;-65
2023/07/23 00:24:14;;;;;;;9.90;9.70;;;18.70;99.90;;;;;;5027106;28;20465;-66
2023/07/23 00:26:41;;;;;;;9.90;9.70;;;18.80;99.90;;;;;;5027299;28;20472;-66
2023/07/23 00:29:10;;;;;;;9.60;9.40;;;18.70;99.90;;;;;;5027477;28;20495;-66
2023/07/23 00:31:38;;;;;;;10.00;9.80;;;18.70;99.90;;;;;;5018576;28;20488;-66
2023/07/23 00:34:04;;;;;;;10.13;9.93;;;18.70;99.90;;;;;;5024555;28;20493;-66
2023/07/23 00:36:31;;;;;;;9.47;9.27;;;18.60;99.90;;;;;;5021618;28;20473;-64
2023/07/23 00:38:58;;;;;;;9.80;9.60;;;18.60;99.90;;;;;;5024875;28;20468;-65
2023/07/23 00:41:25;;;;;;;9.63;9.43;;;18.50;99.90;;;;;;5019515;28;20545;-66
2023/07/23 00:43:52;;;;;;;9.70;9.50;;;18.50;99.90;;;;;;5018580;28;20473;-66
2023/07/23 00:46:22;;;;;;;9.90;9.70;;;18.50;99.90;;;;;;5030047;28;20468;-65
2023/07/23 00:48:49;;;;;;;9.90;9.70;;;18.50;99.90;;;;;;5013772;28;21026;-65
2023/07/23 00:51:17;;;;;;;10.03;9.83;;;18.50;99.90;;;;;;5028729;28;20692;-65
2023/07/23 00:53:45;;;;;;;9.97;9.77;;;18.50;99.90;;;;;;5019525;28;20464;-65
2023/07/23 00:56:12;;;;;;;9.90;9.70;;;18.50;99.90;;;;;;5018314;28;20827;-67
2023/07/23 00:58:39;;;;;;;10.10;9.90;;;18.50;99.90;;;;;;5022757;28;20464;-66
2023/07/23 01:01:08;;;;;;;10.00;9.80;;;18.50;99.90;;;;;;5021263;28;21068;-65
2023/07/23 01:03:36;;;;;;;10.17;9.97;;;18.50;99.90;;;;;;5023657;28;20453;-66
2023/07/23 01:06:05;;;;;;;10.10;9.90;;;18.50;99.90;;;;;;5015208;28;20479;-67
2023/07/23 01:08:34;;;;;;;9.70;9.50;;;18.50;99.90;;;;;;5024362;28;20492;-66
2023/07/23 01:11:02;;;;;;;10.10;9.90;;;18.50;99.90;;;;;;5024532;28;20492;-64
2023/07/23 01:13:29;;;;;;;10.40;10.20;;;18.60;99.90;;;;;;5022304;28;21059;-64
2023/07/23 01:15:58;;;;;;;10.27;10.07;;;18.50;99.90;;;;;;5021351;28;20496;-65
2023/07/23 01:18:26;;;;;;;9.80;9.60;;;18.50;99.90;;;;;;5022970;28;20520;-65
2023/07/23 01:20:56;;;;;;;10.43;10.23;;;18.50;99.90;;;;;;5014285;28;20470;-65
2023/07/23 01:23:26;;;;;;;9.80;9.60;;;18.40;99.90;;;;;;5025554;28;20465;-66
2023/07/23 01:25:53;;;;;;;9.80;9.60;;;18.40;99.90;;;;;;5025166;28;20476;-65
2023/07/23 01:28:20;;;;;;;9.90;9.70;;;18.40;99.90;;;;;;5019584;28;20461;-65
2023/07/23 01:30:47;;;;;;;10.10;9.90;;;18.40;99.90;;;;;;5025914;28;20506;-65
2023/07/23 01:33:15;;;;;;;9.83;9.63;;;18.40;99.90;;;;;;5025081;28;20460;-66
2023/07/23 01:35:43;;;;;;;10.00;9.80;;;18.40;99.90;;;;;;5026359;28;20657;-66
2023/07/23 01:38:11;;;;;;;9.70;9.50;;;18.40;99.90;;;;;;5029289;28;20563;-66
2023/07/23 01:40:41;;;;;;;9.70;9.50;;;18.40;99.90;;;;;;5023740;28;20468;-65
2023/07/23 01:43:07;;;;;;;9.80;9.60;;;18.40;99.90;;;;;;5023532;28;20456;-66
2023/07/23 01:45:35;;;;;;;9.83;9.63;;;18.40;99.90;;;;;;5017113;28;20979;-66
2023/07/23 01:48:02;;;;;;;9.90;9.70;;;18.40;99.90;;;;;;5019426;28;20457;-66
2023/07/23 01:50:29;;;;;;;9.60;9.40;;;18.40;99.90;;;;;;5025728;28;20995;-65
2023/07/23 01:52:56;;;;;;;9.87;9.67;;;18.40;99.90;;;;;;5027449;28;20485;-65
2023/07/23 01:55:23;;;;;;;9.73;9.53;;;18.40;99.90;;;;;;5015525;28;21062;-65
2023/07/23 01:57:53;;;;;;;9.90;9.70;;;18.40;99.90;;;;;;5024049;28;20503;-65
2023/07/23 02:00:20;;;;;;;10.13;9.93;;;18.40;99.90;;;;;;5024908;28;20520;-65
2023/07/23 02:02:48;;;;;;;10.00;9.80;;;18.40;99.90;;;;;;5025388;28;20465;-65
2023/07/23 02:05:17;;;;;;;9.80;9.60;;;18.40;99.90;;;;;;5030093;28;20484;-66
2023/07/23 02:07:45;;;;;;;9.80;9.60;;;18.40;99.90;;;;;;5027912;28;20460;-66
2023/07/23 02:10:13;;;;;;;10.00;9.80;;;18.40;99.90;;;;;;5024209;28;20856;-65
2023/07/23 02:12:40;;;;;;;10.00;9.80;;;18.40;99.90;;;;;;5016153;28;20543;-67
2023/07/23 02:15:10;;;;;;;10.00;9.80;;;18.30;99.90;;;;;;5019962;28;20489;-66
2023/07/23 02:17:37;;;;;;;10.00;9.80;;;18.30;99.90;;;;;;5025002;28;20543;-65
2023/07/23 02:20:08;;;;;;;10.03;9.83;;;18.30;99.90;;;;;;5022170;28;20465;-65
2023/07/23 02:22:37;;;;;;;9.73;9.53;;;18.30;99.90;;;;;;5019583;28;20476;-66
2023/07/23 02:25:06;;;;;;;9.93;9.73;;;18.40;99.90;;;;;;5028808;28;20461;-66
2023/07/23 02:27:34;;;;;;;10.10;9.90;;;18.30;99.90;;;;;;5024054;28;20811;-64
2023/07/23 02:30:01;;;;;;;10.40;10.20;;;18.30;99.90;;;;;;5024914;28;20579;-66
2023/07/23 02:32:31;;;;;;;10.13;9.93;;;18.30;99.90;;;;;;5020973;28;20460;-67
2023/07/23 02:34:57;;;;;;;10.10;9.90;;;18.40;99.90;;;;;;5028310;28;20465;-66
2023/07/23 02:37:24;;;;;;;10.40;10.20;;;18.40;99.90;;;;;;5027845;28;20464;-66
2023/07/23 02:39:53;;;;;;;10.33;10.13;;;18.40;99.90;;;;;;5023780;28;20476;-65
2023/07/23 02:42:21;;;;;;;10.00;9.80;;;18.30;99.90;;;;;;5018216;28;20712;-67
2023/07/23 02:44:48;;;;;;;10.50;10.30;;;18.30;99.90;;;;;;5028903;28;20547;-66
2023/07/23 02:47:17;;;;;;;9.90;9.70;;;18.30;99.90;;;;;;5028412;28;20460;-64
2023/07/23 02:49:46;;;;;;;10.30;10.10;;;18.30;99.90;;;;;;5013217;28;20485;-66
2023/07/23 02:52:13;;;;;;;10.13;9.93;;;18.30;99.90;;;;;;5021997;28;20876;-64
2023/07/23 02:54:42;;;;;;;9.87;9.67;;;18.30;99.90;;;;;;5023889;28;21400;-66
2023/07/23 02:57:08;;;;;;;10.20;10.00;;;18.40;99.90;;;;;;5021024;28;20519;-66
2023/07/23 02:59:35;;;;;;;10.47;10.27;;;18.40;99.90;;;;;;5020307;28;21007;-66
2023/07/23 03:02:02;;;;;;;10.40;10.20;;;18.40;99.90;;;;;;5028245;28;20460;-66
2023/07/23 03:04:31;;;;;;;10.53;10.33;;;18.40;99.90;;;;;;5023408;28;20466;-65
2023/07/23 03:06:59;;;;;;;10.17;9.97;;;18.40;99.90;;;;;;5026405;28;20463;-66
2023/07/23 03:09:27;;;;;;;10.00;9.80;;;18.50;99.90;;;;;;5024158;28;21003;-66
2023/07/23 03:11:55;;;;;;;10.17;9.97;;;18.60;99.90;;;;;;5011640;28;20829;-65
2023/07/23 03:14:22;;;;;;;10.90;10.70;;;18.60;99.90;;;;;;5022363;28;20951;-66
2023/07/23 03:16:50;;;;;;;10.43;10.23;;;18.70;99.90;;;;;;5005440;28;20470;-65
2023/07/23 03:19:17;;;;;;;10.23;10.03;;;18.80;99.90;;;;;;5008251;28;20466;-65
2023/07/23 03:21:44;;;;;;;10.30;10.10;;;18.80;99.90;;;;;;4999348;28;20904;-65
2023/07/23 03:24:12;;;;;;;10.50;10.30;;;18.70;99.90;;;;;;5004959;28;20465;-65
2023/07/23 03:26:38;;;;;;;10.90;10.70;;;18.70;99.90;;;;;;4998410;28;20473;-65
2023/07/23 03:29:05;;;;;;;11.20;10.93;;;18.80;99.90;;;;;;5007936;28;20461;-66
2023/07/23 03:31:32;;;;;;;10.67;10.47;;;18.80;99.90;;;;;;4999730;28;20828;-65
2023/07/23 03:34:01;;;;;;;10.50;10.30;;;18.90;99.90;;;;;;5008306;28;20469;-65
2023/07/23 03:36:27;;;;;;;10.63;10.43;;;18.90;99.90;;;;;;5000047;28;20476;-66
2023/07/23 03:38:54;;;;;;;10.40;10.20;;;19.00;99.90;;;;;;5006961;28;20557;-65
2023/07/23 03:41:23;;;;;;;10.30;10.10;;;19.00;99.90;;;;;;5003041;28;20953;-67
2023/07/23 03:43:51;;;;;;;10.80;10.60;;;19.00;99.90;;;;;;5007425;28;20465;-65
2023/07/23 03:46:18;;;;;;;10.90;10.70;;;19.10;99.90;;;;;;5001880;28;20462;-65
2023/07/23 03:48:47;;;;;;;10.70;10.50;;;19.10;99.90;;;;;;5010106;28;20469;-66
2023/07/23 03:51:17;;;;;;;10.87;10.67;;;19.10;99.90;;;;;;5009309;28;20495;-66
2023/07/23 03:53:44;;;;;;;10.60;10.40;;;19.20;99.90;;;;;;5012216;28;20907;-66
2023/07/23 03:56:11;;;;;;;10.80;10.60;;;19.20;99.90;;;;;;5011600;28;20461;-66
2023/07/23 03:58:38;;;;;;;10.50;10.30;;;19.20;99.90;;;;;;5005694;28;20496;-65
2023/07/23 04:01:07;;;;;;;11.67;11.37;;;19.30;99.90;;;;;;5011565;28;20528;-66
2023/07/23 04:03:34;;;;;;;10.77;10.57;;;19.40;99.90;;;;;;5007274;28;20454;-66
2023/07/23 04:06:03;;;;;;;10.60;10.40;;;19.40;99.90;;;;;;5010067;28;20484;-66
2023/07/23 04:08:30;;;;;;;10.83;10.63;;;19.40;99.90;;;;;;5006324;28;20582;-67
2023/07/23 04:10:56;;;;;;;11.50;11.20;;;19.40;99.90;;;;;;5011440;28;20489;-66
2023/07/23 04:13:23;;;;;;;10.90;10.70;;;19.40;99.90;;;;;;5011528;28;20469;-66
2023/07/23 04:15:51;;;;;;;10.70;10.50;;;19.50;99.90;;;;;;5016097;28;20496;-67
2023/07/23 04:18:18;;;;;;;11.10;10.90;;;19.50;99.90;;;;;;5002417;28;20452;-66
2023/07/23 04:20:46;;;;;;;11.10;10.90;;;19.40;99.90;;;;;;5015331;28;20469;-66
2023/07/23 04:23:13;;;;;;;11.17;10.87;;;19.40;99.90;;;;;;5020465;28;20453;-66
2023/07/23 04:25:42;;;;;;;11.37;11.07;;;19.30;99.90;;;;;;5015543;28;20470;-65
2023/07/23 04:28:12;;;;;;;11.60;11.30;;;19.40;99.90;;;;;;5008571;28;20461;-67
2023/07/23 04:30:40;;;;;;;11.40;11.10;;;19.30;99.90;;;;;;5021112;28;20500;-66
2023/07/23 04:33:08;;;;;;;10.60;10.40;;;19.40;99.90;;;;;;5015586;28;20552;-67
2023/07/23 04:35:35;;;;;;;10.70;10.50;;;19.30;99.90;;;;;;5012794;28;20526;-65
2023/07/23 04:38:02;;;;;;;10.57;10.37;;;19.30;99.90;;;;;;5020278;28;20817;-66
2023/07/23 04:40:34;;;;;;;10.90;10.70;;;19.30;99.90;;;;;;5014372;28;20466;-66
2023/07/23 04:43:01;;;;;;;11.30;11.00;;;19.40;99.90;;;;;;5017203;28;20644;-66
2023/07/23 04:45:28;;;;;;;11.00;10.80;;;19.40;99.90;;;;;;5019349;28;20508;-66
2023/07/23 04:47:54;;;;;;;10.53;10.33;;;19.40;99.90;;;;;;5020146;28;20583;-66
2023/07/23 04:50:23;;;;;;;10.70;10.50;;;19.30;99.90;;;;;;5013006;28;20512;-66
2023/07/23 04:52:52;;;;;;;10.70;10.50;;;19.30;99.90;;;;;;5011644;28;20467;-66
2023/07/23 04:55:19;;;;;;;10.20;10.00;;;19.40;99.90;;;;;;5020972;28;20836;-66
2023/07/23 04:57:47;;;;;;;10.60;10.40;;;19.40;99.90;;;;;;5008093;28;20462;-66
2023/07/23 05:00:14;;;;;;;11.03;10.80;;;19.30;99.90;;;;;;5016323;28;20489;-66
2023/07/23 05:02:41;;;;;;;10.67;10.47;;;19.30;99.90;;;;;;5004737;28;20466;-66
2023/07/23 05:05:09;;;;;;;10.93;10.73;;;19.30;99.90;;;;;;5017425;28;20467;-65
2023/07/23 05:07:40;;;;;;;11.03;10.80;;;19.30;99.90;;;;;;5015521;28;20445;-67
2023/07/23 05:10:08;;;;;;;11.60;11.30;;;19.20;99.90;;;;;;5007897;28;20518;-67
2023/07/23 05:12:36;;;;;;;10.90;10.70;;;19.30;99.90;;;;;;5015861;28;20461;-66
2023/07/23 05:15:10;;;;;;;10.80;10.60;;;19.40;99.90;;;;;;5011484;28;20639;-67
2023/07/23 05:17:37;;;;;;;10.53;10.33;;;19.40;99.90;;;;;;5027741;28;20554;-66
2023/07/23 05:20:06;;;;;;;10.50;10.30;;;19.40;99.90;;;;;;5025481;28;20465;-66
2023/07/23 05:22:33;;;;;;;10.83;10.63;;;19.50;99.90;;;;;;5023865;28;20465;-67
2023/07/23 05:25:03;;;;;;;10.90;10.70;;;19.50;99.90;;;;;;5026080;28;20929;-67
2023/07/23 05:27:30;;;;;;;11.10;10.90;;;19.50;99.90;;;;;;5023220;28;20461;-66
2023/07/23 05:29:57;;;;;;;10.43;10.23;;;19.50;99.90;;;;;;5027622;28;20457;-66
2023/07/23 05:32:24;;;;;;;10.90;10.70;;;19.60;99.90;;;;;;5022777;28;20891;-66
2023/07/23 05:34:53;;;;;;;10.70;10.50;;;19.40;99.90;;;;;;5029235;28;20473;-66
2023/07/23 05:37:20;;;;;;;10.50;10.30;;;19.50;99.90;;;;;;5026700;28;20468;-67
2023/07/23 05:39:46;;;;;;;10.90;10.70;;;19.50;99.90;;;;;;5027441;28;20452;-66
2023/07/23 05:42:15;;;;;;;10.60;10.40;;;19.60;99.90;;;;;;5015177;28;20465;-66
2023/07/23 05:44:42;;;;;;;10.70;10.50;;;19.50;99.90;;;;;;5027364;28;20449;-67
2023/07/23 05:47:09;;;;;;;11.23;10.93;;;19.60;99.90;;;;;;5027244;28;21067;-67
2023/07/23 05:49:36;;;;;;;11.13;10.87;;;19.70;99.90;;;;;;5024515;28;20461;-67
2023/07/23 05:52:04;;;;;;;10.73;10.53;;;19.70;99.90;;;;;;5027775;28;20504;-66
2023/07/23 05:54:30;;;;;;;11.23;10.93;;;19.80;99.90;;;;;;5025997;28;20950;-67
2023/07/23 05:56:57;;;;;;;10.63;10.43;;;19.80;99.90;;;;;;5026667;28;20464;-67
2023/07/23 05:59:25;;;;;;;11.27;10.97;;;19.90;99.90;;;;;;5023135;28;20492;-66
2023/07/23 06:01:53;;;;;;;10.93;10.73;;;19.90;99.90;;;;;;5025787;28;20457;-67
2023/07/23 06:04:20;;;;;;;10.70;10.50;;;19.80;99.90;;;;;;5028117;28;20535;-67
2023/07/23 06:06:47;;;;;;;10.60;10.40;;;19.90;99.90;;;;;;5026431;28;20551;-67
2023/07/23 06:09:14;;;;;;;11.50;11.20;;;19.90;99.90;;;;;;5024400;28;21255;-65
2023/07/23 06:11:41;;;;;;;10.83;10.63;;;19.80;99.90;;;;;;5021270;28;20498;-66
2023/07/23 06:14:08;;;;;;;10.63;10.43;;;19.90;99.90;;;;;;5021203;28;20475;-66
2023/07/23 06:16:37;;;;;;;10.50;10.30;;;19.90;99.90;;;;;;5026777;28;20484;-66
2023/07/23 06:19:04;;;;;;;11.00;10.80;;;19.80;99.90;;;;;;5027454;28;20526;-67
2023/07/23 06:21:31;;;;;;;10.80;10.60;;;19.80;99.90;;;;;;5017125;28;21055;-66
2023/07/23 06:23:58;;;;;;;10.80;10.60;;;19.90;99.90;;;;;;5024067;28;20461;-66
2023/07/23 06:26:24;;;;;;;11.03;10.83;;;20.00;99.90;;;;;;5022803;28;20460;-66
2023/07/23 06:28:52;;;;;;;10.93;10.73;;;20.10;99.90;;;;;;5027661;28;20468;-66
2023/07/23 06:31:19;;;;;;;10.70;10.50;;;20.10;99.90;;;;;;5027052;28;20546;-67
2023/07/23 06:33:47;;;;;;;10.60;10.40;;;20.10;99.90;;;;;;5022672;28;20559;-68
2023/07/23 06:36:14;;;;;;;10.73;10.53;;;19.90;99.90;;;;;;5028166;28;20477;-66
2023/07/23 06:38:41;;;;;;;10.73;10.53;;;20.00;99.90;;;;;;5028675;28;20468;-66
2023/07/23 06:41:10;;;;;;;11.17;10.87;;;20.00;99.90;;;;;;5028184;28;20983;-67
2023/07/23 06:43:36;;;;;;;10.87;10.67;;;20.10;99.90;;;;;;5023538;28;20469;-66
2023/07/23 06:46:05;;;;;;;11.00;10.80;;;20.10;99.90;;;;;;5021190;28;20457;-66
2023/07/23 06:48:31;;;;;;;10.70;10.50;;;19.90;99.90;;;;;;5027621;28;20468;-66
2023/07/23 06:51:00;;;;;;;10.30;10.10;;;20.10;99.90;;;;;;5024117;28;20588;-67
2023/07/23 06:53:28;;;;;;;10.73;10.53;;;20.10;99.90;;;;;;5026867;28;20491;-67
2023/07/23 06:56:00;;;;;;;10.90;10.70;;;20.20;99.90;;;;;;5027844;28;20947;-67
2023/07/23 06:58:30;;;;;;;11.13;10.83;;;20.20;99.90;;;;;;5024074;28;20472;-66
2023/07/23 07:00:58;;;;;;;10.93;10.73;;;20.30;99.90;;;;;;5028116;28;20484;-65
2023/07/23 07:03:25;;;;;;;11.10;10.80;;;20.20;99.90;;;;;;5018985;28;20488;-66
2023/07/23 07:05:53;;;;;;;11.50;11.20;;;20.20;99.90;;;;;;5025974;28;20556;-67
2023/07/23 07:08:21;;;;;;;11.13;10.83;;;20.20;99.90;;;;;;5028196;28;20463;-66
2023/07/23 07:10:49;;;;;;;11.60;11.30;;;20.20;99.90;;;;;;5024567;28;20456;-66
2023/07/23 07:13:17;;;;;;;10.70;10.50;;;20.10;99.90;;;;;;5021282;28;20465;-66
2023/07/23 07:15:44;;;;;;;10.60;10.40;;;20.10;99.90;;;;;;5016519;28;20500;-67
2023/07/23 07:18:11;;;;;;;10.93;10.73;;;20.00;99.90;;;;;;5016893;28;20465;-66
2023/07/23 07:20:38;;;;;;;10.80;10.60;;;19.90;99.90;;;;;;5015173;28;20465;-66
2023/07/23 07:23:04;;;;;;;10.50;10.30;;;19.80;99.90;;;;;;5010617;28;20837;-66
2023/07/23 07:25:32;;;;;;;10.30;10.10;;;19.80;99.90;;;;;;5006567;28;20481;-66
2023/07/23 07:28:00;;;;;;;10.23;10.03;;;19.70;99.90;;;;;;5015196;28;20952;-67
2023/07/23 07:30:28;;;;;;;10.03;9.83;;;19.70;99.90;;;;;;5013943;28;20839;-66
2023/07/23 07:32:56;;;;;;;10.20;10.00;;;19.60;99.90;;;;;;5018632;28;20485;-66
2023/07/23 07:35:23;;;;;;;9.57;9.37;;;19.60;99.90;;;;;;5002498;28;20832;-65
2023/07/23 07:37:50;;;;;;;10.27;10.07;;;19.60;99.90;;;;;;5009138;28;20511;-65
2023/07/23 07:40:17;;;;;;;9.20;9.00;;;19.50;99.90;;;;;;5013253;28;20810;-66
2023/07/23 07:42:45;;;;;;;9.27;9.07;;;19.20;99.90;;;;;;5010387;28;20526;-66
2023/07/23 07:45:13;;;;;;;8.60;8.50;;;18.90;99.90;;;;;;5017338;28;20464;-65
2023/07/23 07:47:39;;;;;;;8.40;8.30;;;18.70;99.90;;;;;;5016856;28;20464;-65
2023/07/23 07:50:08;;;;;;;8.20;8.10;;;18.40;99.90;;;;;;4996974;28;20532;-65
2023/07/23 07:52:36;;;;;;;8.10;8.00;;;18.40;99.90;;;;;;5017160;28;20481;-65
2023/07/23 07:55:03;;;;;;;9.53;9.33;;;18.60;99.90;;;;;;5009329;28;20469;-66
2023/07/23 07:57:32;;;;;;;9.63;9.43;;;18.40;99.90;;;;;;5016303;28;20462;-65
2023/07/23 08:00:03;;;;;;;9.57;9.37;;;18.40;99.90;;;;;;5012435;28;20893;-65
2023/07/23 08:02:30;;;;;;;8.30;8.20;;;18.30;99.90;;;;;;4999085;28;20462;-65
2023/07/23 08:04:58;;;;;;;8.63;8.53;;;18.20;99.90;;;;;;5015041;28;20461;-64
2023/07/23 08:07:25;;;;;;;8.53;8.43;;;18.20;99.90;;;;;;5014559;28;20504;-65
2023/07/23 08:09:57;;;;;;;9.53;9.33;;;18.30;99.90;;;;;;5014564;28;20464;-65
2023/07/23 08:12:24;;;;;;;9.30;9.10;;;18.30;99.90;;;;;;5002285;28;20494;-66
2023/07/23 08:14:53;;;;;;;8.67;8.57;;;18.20;99.90;;;;;;5006633;28;20489;-66
2023/07/23 08:17:22;;;;;;;8.57;8.47;;;18.20;99.90;;;;;;5016590;28;20492;-67
2023/07/23 08:19:49;;;;;;;7.90;7.80;;;18.20;99.90;;;;;;5019044;28;20464;-65
2023/07/23 08:22:17;;;;;;;8.10;8.00;;;18.20;99.90;;;;;;5009423;28;20466;-66
2023/07/23 08:24:45;;;;;;;8.60;8.50;;;18.10;99.90;;;;;;5015189;28;20559;-66
2023/07/23 08:27:16;;;;;;;9.73;9.53;;;18.00;99.90;;;;;;5012503;28;20741;-66
2023/07/23 08:29:46;;;;;;;9.20;9.00;;;17.80;99.90;;;;;;4997127;28;20507;-65
2023/07/23 08:32:19;;;;;;;7.40;7.30;;;17.60;99.90;;;;;;5010488;28;20485;-67
2023/07/23 08:34:47;;;;;;;6.30;6.20;;;17.40;99.90;;;;;;5016958;28;20972;-65
2023/07/23 08:37:14;;;;;;;6.43;6.33;;;17.50;99.90;;;;;;5018036;28;20469;-66
2023/07/23 08:39:41;;;;;;;6.80;6.70;;;17.70;99.90;;;;;;5003727;28;20473;-67
2023/07/23 08:42:38;;;;;;;7.10;7.00;;;18.00;99.90;;;;;;5002178;28;20476;-67
2023/07/23 08:45:45;;;;;;;7.10;7.00;;;18.30;99.90;;;;;;4957545;28;20836;-67
2023/07/23 08:48:17;;;;;;;7.07;6.97;;;18.50;99.90;;;;;;4991563;28;20476;-68
2023/07/23 08:50:47;;;;;;;7.17;7.07;;;18.70;99.90;;;;;;5006183;28;20471;-67
2023/07/23 08:53:15;;;;;;;7.83;7.73;;;18.60;99.90;;;;;;5003682;28;20500;-66
2023/07/23 08:55:44;;;;;;;8.30;8.20;;;18.80;99.90;;;;;;5008014;28;20516;-67
2023/07/23 08:58:14;;;;;;;8.03;7.93;;;19.00;99.90;;;;;;5010614;28;20458;-66
2023/07/23 09:00:42;;;;;;;7.47;7.37;;;19.20;99.90;;;;;;5006614;28;21044;-67
2023/07/23 09:03:11;;;;;;;8.00;7.90;;;19.30;99.90;;;;;;5002561;28;20465;-66
2023/07/23 09:05:39;;;;;;;8.10;8.00;;;18.90;99.90;;;;;;5007097;28;20472;-66
2023/07/23 09:08:08;;;;;;;7.50;7.40;;;19.00;99.90;;;;;;5005913;28;20469;-67
2023/07/23 09:10:34;;;;;;;7.77;7.67;;;19.00;99.90;;;;;;5008789;28;20964;-67
2023/07/23 09:13:10;;;;;;;7.53;7.43;;;18.70;99.90;;;;;;5020166;28;20853;-67
2023/07/23 09:15:37;;;;;;;7.73;7.63;;;18.60;99.90;;;;;;5022177;28;20492;-67
2023/07/23 09:18:04;;;;;;;7.60;7.50;;;18.70;99.90;;;;;;5027499;28;20457;-67
2023/07/23 09:20:31;;;;;;;7.70;7.60;;;18.90;99.90;;;;;;5023663;28;20484;-66
2023/07/23 09:23:07;;;;;;;8.10;8.00;;;19.10;99.90;;;;;;5028421;28;20999;-66
2023/07/23 09:25:35;;;;;;;7.87;7.77;;;19.40;99.90;;;;;;5026892;28;20465;-66
2023/07/23 09:28:03;;;;;;;7.93;7.83;;;19.50;99.90;;;;;;5022335;28;20492;-67
2023/07/23 09:30:29;;;;;;;8.00;7.90;;;19.70;99.90;;;;;;5029159;28;20464;-66
2023/07/23 09:32:57;;;;;;;7.60;7.50;;;19.70;99.90;;;;;;5029091;28;20551;-67
2023/07/23 09:35:24;;;;;;;8.07;7.97;;;19.80;99.90;;;;;;5026851;28;20555;-66
2023/07/23 09:37:57;;;;;;;7.90;7.80;;;19.70;99.90;;;;;;5027346;28;20837;-67
2023/07/23 09:40:34;;;;;;;8.10;8.00;;;19.80;99.90;;;;;;5021279;28;20468;-66
2023/07/23 09:43:01;;;;;;;7.90;7.80;;;20.00;99.90;;;;;;5027195;28;20864;-67
2023/07/23 09:45:30;;;;;;;7.87;7.77;;;20.10;99.90;;;;;;5027596;28;20459;-66
2023/07/23 09:47:58;;;;;;;7.80;7.70;;;19.80;99.90;;;;;;5020304;28;20461;-67
2023/07/23 09:50:25;;;;;;;7.90;7.80;;;19.80;99.90;;;;;;5024654;28;20504;-66
2023/07/23 09:52:52;;;;;;;7.90;7.80;;;19.90;99.90;;;;;;5026258;28;20492;-67
2023/07/23 09:55:20;;;;;;;7.60;7.50;;;19.90;99.90;;;;;;5017879;28;20473;-67
2023/07/23 09:57:52;;;;;;;8.30;8.20;;;19.90;99.90;;;;;;5025403;28;20920;-68
2023/07/23 10:00:19;;;;;;;8.30;8.20;;;20.10;99.90;;;;;;5024265;28;20510;-67
2023/07/23 10:02:49;;;;;;;8.07;7.97;;;19.90;99.90;;;;;;5027280;28;21054;-67
2023/07/23 10:05:18;;;;;;;8.10;8.00;;;20.20;99.90;;;;;;5011509;28;20893;-68
2023/07/23 10:07:47;;;;;;;8.40;8.30;;;20.60;99.90;;;;;;5018121;28;20464;-67
2023/07/23 10:10:14;;;;;;;8.10;8.00;;;21.20;99.90;;;;;;5023020;28;20461;-67
2023/07/23 10:12:41;;;;;;;8.17;8.07;;;21.30;99.90;;;;;;5022411;28;20995;-67
2023/07/23 10:15:10;;;;;;;8.47;8.37;;;21.40;99.90;;;;;;5018804;28;20484;-68
2023/07/23 10:17:41;;;;;;;8.33;8.23;;;21.10;99.90;;;;;;5016163;28;20561;-67
2023/07/23 10:20:11;;;;;;;8.43;8.33;;;21.20;99.90;;;;;;5024863;28;20488;-67
2023/07/23 10:22:39;;;;;;;8.30;8.20;;;21.00;99.90;;;;;;5018642;28;20457;-68
2023/07/23 10:25:25;;;;;;;8.20;8.10;;;20.80;99.90;;;;;;5027128;28;20463;-67
2023/07/23 10:27:57;;;;;;;8.37;8.27;;;20.80;99.90;;;;;;5026612;28;20868;-68
2023/07/23 10:30:27;;;;;;;8.37;8.27;;;20.60;99.90;;;;;;5026410;28;20503;-67
2023/07/23 10:33:30;;;;;;;8.40;8.30;;;20.80;99.90;;;;;;5024367;28;20500;-66
2023/07/23 10:36:04;;;;;;;8.50;8.40;;;20.80;99.90;;;;;;4991797;28;21196;-67
2023/07/23 10:38:32;;;;;;;9.13;8.93;;;20.80;99.90;;;;;;5019611;28;20515;-68
2023/07/23 10:41:00;;;;;;;8.70;8.60;;;20.80;99.90;;;;;;5024488;28;20464;-67
2023/07/23 10:43:39;;;;;;;8.30;8.20;;;20.80;99.90;;;;;;5026471;28;20472;-65
2023/07/23 10:46:09;;;;;;;8.10;8.00;;;20.50;99.90;;;;;;5023702;28;20956;-66
2023/07/23 10:48:47;;;;;;;8.20;8.10;;;20.70;99.90;;;;;;5025541;28;20460;-67
2023/07/23 10:51:15;;;;;;;8.10;8.00;;;20.80;99.90;;;;;;5027197;28;21049;-66
2023/07/23 10:53:53;;;;;;;8.17;8.07;;;21.10;99.90;;;;;;5020497;28;20499;-66
2023/07/23 10:56:29;;;;;;;8.00;7.90;;;21.10;99.90;;;;;;5023095;28;20567;-66
2023/07/23 10:58:58;;;;;;;7.83;7.73;;;21.20;99.90;;;;;;5025471;28;20464;-66
2023/07/23 11:01:28;;;;;;;8.57;8.47;;;21.20;99.90;;;;;;5027020;28;20467;-65
2023/07/23 11:03:58;;;;;;;8.00;7.90;;;21.30;99.90;;;;;;5022245;28;22364;-66
2023/07/23 11:06:30;;;;;;;8.10;8.00;;;21.10;99.90;;;;;;5020122;28;20472;-66
2023/07/23 11:08:59;;;;;;;7.93;7.83;;;21.20;99.90;;;;;;5024510;28;20935;-67
2023/07/23 11:11:34;;;;;;;7.90;7.80;;;21.30;99.90;;;;;;5023173;28;21077;-65
2023/07/23 11:14:03;;;;;;;8.17;8.07;;;21.50;99.90;;;;;;5018646;28;20494;-67
2023/07/23 11:16:35;;;;;;;8.20;8.10;;;21.50;99.90;;;;;;5021838;28;20491;-67
2023/07/23 11:19:04;;;;;;;8.00;7.90;;;21.60;99.90;;;;;;5026179;28;20507;-65
2023/07/23 11:21:31;;;;;;;8.30;8.20;;;21.50;99.90;;;;;;5014773;28;20807;-66
2023/07/23 11:23:59;;;;;;;8.30;8.20;;;21.60;99.90;;;;;;5022960;28;20476;-67
2023/07/23 11:26:27;;;;;;;8.20;8.10;;;21.70;99.90;;;;;;5025895;28;20503;-67
2023/07/23 11:28:55;;;;;;;8.00;7.90;;;21.40;99.90;;;;;;5025064;28;21010;-66
2023/07/23 11:31:22;;;;;;;8.27;8.17;;;21.20;99.90;;;;;;5026734;28;20463;-65
2023/07/23 11:33:51;;;;;;;8.30;8.20;;;21.20;99.90;;;;;;5022420;28;20567;-65
2023/07/23 11:36:18;;;;;;;8.10;8.00;;;21.30;99.90;;;;;;5024395;28;20461;-66
2023/07/23 11:38:46;;;;;;;8.23;8.13;;;21.30;99.90;;;;;;5016356;28;20461;-66
2023/07/23 11:41:13;;;;;;;7.73;7.63;;;21.40;99.90;;;;;;5023447;28;20902;-66
2023/07/23 11:43:40;;;;;;;7.80;7.70;;;21.10;99.90;;;;;;5025954;28;20484;-66
2023/07/23 11:46:07;;;;;;;7.50;7.40;;;21.00;99.90;;;;;;5023148;28;20973;-66
2023/07/23 11:48:34;;;;;;;7.80;7.70;;;21.10;99.90;;;;;;5019615;28;20465;-66
2023/07/23 11:51:04;;;;;;;8.00;7.90;;;21.10;99.90;;;;;;5023903;28;20543;-66
2023/07/23 11:53:35;;;;;;;8.07;7.97;;;21.00;99.90;;;;;;5026689;28;20481;-67
2023/07/23 11:56:06;;;;;;;7.97;7.87;;;20.80;99.90;;;;;;5023718;28;20716;-67
2023/07/23 11:58:35;;;;;;;7.80;7.70;;;20.90;99.90;;;;;;5020748;28;20960;-66
2023/07/23 12:01:02;;;;;;;7.70;7.60;;;21.20;99.90;;;;;;5017877;28;20472;-67
2023/07/23 12:03:29;;;;;;;7.80;7.70;;;21.30;99.90;;;;;;5027171;28;20807;-66
2023/07/23 12:05:58;;;;;;;8.13;8.03;;;21.30;99.90;;;;;;5026926;28;20461;-68
2023/07/23 12:08:29;;;;;;;7.60;7.50;;;21.30;99.90;;;;;;5023136;28;20468;-67
2023/07/23 12:10:56;;;;;;;7.67;7.57;;;21.40;99.90;;;;;;5027907;28;20453;-66
2023/07/23 12:13:26;;;;;;;7.70;7.60;;;21.40;99.90;;;;;;5031271;28;20816;-67
2023/07/23 12:15:57;;;;;;;7.40;7.30;;;21.40;99.90;;;;;;5023615;28;20507;-67
2023/07/23 12:18:27;;;;;;;7.73;7.63;;;21.40;99.90;;;;;;5028487;28;20464;-67
2023/07/23 12:20:59;;;;;;;7.70;7.60;;;21.30;99.90;;;;;;5029494;28;20465;-67
2023/07/23 12:23:27;;;;;;;7.80;7.70;;;21.50;99.90;;;;;;5027686;28;20942;-66
2023/07/23 12:25:55;;;;;;;7.90;7.80;;;21.40;99.90;;;;;;5030515;28;20461;-67
2023/07/23 12:28:26;;;;;;;7.60;7.50;;;21.30;99.90;;;;;;5021123;28;20466;-67
2023/07/23 12:30:53;;;;;;;7.63;7.53;;;21.40;99.90;;;;;;5029815;28;20554;-67
2023/07/23 12:33:20;;;;;;;7.47;7.37;;;21.30;99.90;;;;;;5026231;28;20497;-68
2023/07/23 12:35:47;;;;;;;7.40;7.30;;;21.10;99.90;;;;;;5021665;28;20460;-67
2023/07/23 12:38:14;;;;;;;7.60;7.50;;;21.20;99.90;;;;;;5026480;28;20973;-66
2023/07/23 12:40:42;;;;;;;7.50;7.40;;;21.50;99.90;;;;;;5024087;28;20449;-67
2023/07/23 12:43:09;;;;;;;7.93;7.83;;;21.70;99.90;;;;;;5028132;28;21438;-66
2023/07/23 12:45:37;;;;;;;8.40;8.30;;;21.60;99.90;;;;;;5022993;28;20457;-68